| time (UTC) | temp F | wind direction | speed MPH | gust MPH | rain 1hr in | rain 24hr in | rain mn in | humidity % | barometer mb |
| 20260510230026 | 65 | 214 | 0.0 | 0.0 | 0.00 | 0.00 | 0.00 | 52 | 1012.2 |
| 20260510224522 | 65 | 335 | 0.0 | 0.0 | 0.00 | 0.03 | 0.00 | 53 | 1012.0 |
| 20260510223021 | 66 | 319 | 0.0 | 0.0 | 0.00 | 0.03 | 0.00 | 51 | 1011.8 |
| 20260510221522 | 67 | 349 | 0.0 | 0.0 | 0.00 | 0.03 | 0.00 | 49 | 1011.5 |
| 20260510220020 | 68 | 17 | 0.0 | 3.0 | 0.00 | 0.03 | 0.00 | 48 | 1011.1 |
| 20260510214525 | 69 | 246 | 1.0 | 3.0 | 0.00 | 0.12 | 0.00 | 48 | 1010.8 |
| 20260510213019 | 71 | 309 | 0.0 | 5.0 | 0.00 | 0.12 | 0.00 | 47 | 1010.8 |
| 20260510211528 | 72 | 321 | 2.0 | 6.0 | 0.00 | 0.12 | 0.00 | 47 | 1010.9 |
| 20260510210016 | 72 | 358 | 1.0 | 5.0 | 0.00 | 0.12 | 0.00 | 49 | 1010.7 |
| 20260510204524 | 73 | 314 | 1.0 | 5.0 | 0.00 | 0.20 | 0.00 | 51 | 1010.7 |
| 20260510203014 | 73 | 238 | 1.0 | 4.0 | 0.00 | 0.20 | 0.00 | 51 | 1010.7 |
| 20260510201511 | 72 | 277 | 3.0 | 6.0 | 0.00 | 0.20 | 0.00 | 52 | 1010.6 |
| 20260510200009 | 71 | 315 | 0.0 | 7.0 | 0.00 | 0.20 | 0.00 | 57 | 1010.7 |
| 20260510194511 | 69 | 252 | 1.0 | 5.0 | 0.00 | 0.22 | 0.00 | 61 | 1010.8 |
| 20260510193006 | 71 | 264 | 1.0 | 5.0 | 0.00 | 0.22 | 0.00 | 59 | 1010.9 |
| 20260510191506 | 70 | 300 | 1.0 | 3.0 | 0.00 | 0.22 | 0.00 | 62 | 1011.0 |
| 20260510190004 | 69 | 315 | 0.0 | 2.0 | 0.00 | 0.22 | 0.00 | 63 | 1011.0 |
| 20260510184503 | 69 | 284 | 0.0 | 4.0 | 0.00 | 0.28 | 0.00 | 62 | 1011.0 |
| 20260510183003 | 72 | 219 | 0.0 | 9.0 | 0.00 | 0.28 | 0.00 | 57 | 1010.9 |
| 20260510181625 | 71 | 86 | 2.0 | 5.0 | 0.00 | 0.28 | 0.00 | 56 | 1011.0 |
| 20260510180107 | 72 | 298 | 3.0 | 7.0 | 0.00 | 0.28 | 0.00 | 57 | 1011.1 |
| 20260510174614 | 69 | 198 | 3.0 | 12.0 | 0.00 | 0.38 | 0.00 | 61 | 1011.3 |
| 20260510173055 | 67 | 245 | 0.0 | 9.0 | 0.00 | 0.38 | 0.00 | 70 | 1011.3 |
| 20260510171617 | 67 | 272 | 1.0 | 9.0 | 0.00 | 0.38 | 0.00 | 73 | 1011.6 |
| 20260510170052 | 66 | 183 | 1.0 | 9.0 | 0.00 | 0.38 | 0.00 | 74 | 1011.8 |
| 20260510164558 | 66 | 182 | 1.0 | 7.0 | 0.00 | 0.49 | 0.00 | 73 | 1011.9 |
| 20260510163055 | 66 | 203 | 0.0 | 5.0 | 0.00 | 0.49 | 0.00 | 73 | 1012.0 |
| 20260510161543 | 65 | 233 | 2.0 | 6.0 | 0.00 | 0.49 | 0.00 | 75 | 1012.1 |
| 20260510160042 | 63 | 265 | 2.0 | 7.0 | 0.00 | 0.49 | 0.00 | 78 | 1012.2 |
| 20260510154536 | 62 | 272 | 2.0 | 5.0 | 0.00 | 0.54 | 0.00 | 80 | 1012.3 |
| 20260510153040 | 62 | 204 | 1.0 | 8.0 | 0.00 | 0.54 | 0.00 | 80 | 1012.3 |
| 20260510151536 | 62 | 113 | 2.0 | 8.0 | 0.00 | 0.54 | 0.00 | 80 | 1012.4 |
| 20260510150030 | 60 | 133 | 1.0 | 5.0 | 0.00 | 0.54 | 0.00 | 84 | 1012.5 |
| 20260510144525 | 58 | 139 | 0.0 | 3.0 | 0.00 | 0.57 | 0.00 | 86 | 1012.4 |
| 20260510143021 | 57 | 183 | 1.0 | 5.0 | 0.00 | 0.57 | 0.00 | 89 | 1012.6 |
| 20260510141519 | 56 | 180 | 1.0 | 3.0 | 0.00 | 0.57 | 0.00 | 91 | 1012.9 |
| 20260510140021 | 55 | 213 | 2.0 | 5.0 | 0.00 | 0.57 | 0.00 | 94 | 1012.8 |
| 20260510134513 | 54 | 220 | 1.0 | 4.0 | 0.00 | 0.60 | 0.00 | 98 | 1012.8 |
| 20260510133010 | 53 | 106 | 1.0 | 4.0 | 0.00 | 0.60 | 0.00 | 99 | 1012.7 |
| 20260510131508 | 53 | 231 | 0.0 | 1.0 | 0.00 | 0.60 | 0.00 | 99 | 1012.6 |
| 20260510130005 | 52 | 213 | 0.0 | 3.0 | 0.00 | 0.60 | 0.00 | 99 | 1012.5 |
| 20260510124504 | 51 | 175 | 0.0 | 1.0 | 0.00 | 0.62 | 0.00 | 99 | 1012.6 |
| 20260510123001 | 51 | 160 | 0.0 | 1.0 | 0.00 | 0.62 | 0.00 | 99 | 1012.7 |
| 20260510121600 | 50 | 236 | 0.0 | 2.0 | 0.00 | 0.62 | 0.00 | 100 | 1012.8 |
| 20260510120057 | 50 | 206 | 0.0 | 2.0 | 0.00 | 0.62 | 0.00 | 100 | 1012.7 |
| 20260510114620 | 50 | 234 | 0.0 | 3.0 | 0.00 | 0.62 | 0.00 | 100 | 1012.8 |
| 20260510113058 | 49 | 110 | 0.0 | 2.0 | 0.00 | 0.62 | 0.00 | 100 | 1012.5 |
| 20260510111551 | 48 | 191 | 1.0 | 3.0 | 0.00 | 0.62 | 0.00 | 100 | 1012.4 |
| 20260510110100 | 48 | 200 | 0.0 | 2.0 | 0.00 | 0.62 | 0.00 | 99 | 1012.3 |
| 20260510104549 | 47 | 174 | 0.0 | 2.0 | 0.00 | 0.62 | 0.00 | 99 | 1012.0 |
| 20260510103051 | 47 | 125 | 1.0 | 3.0 | 0.00 | 0.62 | 0.00 | 99 | 1012.0 |
| 20260510101557 | 47 | 198 | 0.0 | 3.0 | 0.00 | 0.62 | 0.00 | 99 | 1011.7 |
| 20260510100050 | 47 | 207 | 1.0 | 2.0 | 0.00 | 0.62 | 0.00 | 99 | 1011.6 |
| 20260510094548 | 46 | 122 | 0.0 | 2.0 | 0.00 | 0.62 | 0.00 | 99 | 1011.5 |
| 20260510093042 | 46 | 140 | 1.0 | 2.0 | 0.00 | 0.62 | 0.00 | 99 | 1011.4 |
| 20260510091538 | 46 | 53 | 0.0 | 1.0 | 0.00 | 0.62 | 0.00 | 99 | 1011.7 |
| 20260510090037 | 46 | 245 | 0.0 | 0.0 | 0.00 | 0.62 | 0.00 | 99 | 1011.5 |
| 20260510084538 | 45 | 245 | 0.0 | 0.0 | 0.00 | 0.62 | 0.00 | 99 | 1011.7 |
| 20260510083035 | 45 | 245 | 0.0 | 0.0 | 0.00 | 0.62 | 0.00 | 99 | 1011.6 |
| 20260510081541 | 45 | 245 | 0.0 | 0.0 | 0.00 | 0.62 | 0.00 | 99 | 1011.4 |
| 20260510080050 | 45 | 245 | 0.0 | 0.0 | 0.00 | 0.62 | 0.00 | 99 | 1011.4 |
| 20260510074533 | 45 | 245 | 0.0 | 0.0 | 0.00 | 0.62 | 0.00 | 99 | 1011.5 |
| 20260510073041 | 45 | 245 | 0.0 | 0.0 | 0.00 | 0.62 | 0.00 | 99 | 1011.5 |
| 20260510071533 | 45 | 245 | 0.0 | 0.0 | 0.00 | 0.62 | 0.00 | 99 | 1011.5 |
| 20260510070042 | 45 | 245 | 0.0 | 0.0 | 0.00 | 0.62 | 0.00 | 99 | 1011.5 |
| 20260510064529 | 45 | 245 | 0.0 | 0.0 | 0.00 | 0.62 | 0.00 | 99 | 1011.5 |
| 20260510063035 | 45 | 245 | 0.0 | 0.0 | 0.00 | 0.62 | 0.00 | 99 | 1011.7 |
| 20260510061528 | 46 | 245 | 0.0 | 0.0 | 0.00 | 0.62 | 0.00 | 99 | 1011.7 |
| 20260510060037 | 46 | 245 | 0.0 | 0.0 | 0.00 | 0.62 | 0.00 | 99 | 1011.8 |
| 20260510054527 | 45 | 245 | 0.0 | 0.0 | 0.00 | 0.62 | 0.00 | 99 | 1011.7 |
| 20260510053024 | 45 | 245 | 0.0 | 0.0 | 0.00 | 0.62 | 0.00 | 99 | 1011.9 |
| 20260510051524 | 45 | 108 | 0.0 | 0.0 | 0.00 | 0.62 | 0.00 | 99 | 1012.0 |
| 20260510050022 | 45 | 108 | 0.0 | 1.0 | 0.00 | 0.62 | 0.00 | 99 | 1012.2 |
| 20260510044524 | 45 | 108 | 0.0 | 1.0 | 0.00 | 0.62 | 0.00 | 98 | 1012.0 |
| 20260510043021 | 45 | 108 | 0.0 | 0.0 | 0.00 | 0.62 | 0.00 | 98 | 1012.2 |
| 20260510041522 | 45 | 108 | 0.0 | 0.0 | 0.00 | 0.62 | 0.00 | 98 | 1012.0 |
| 20260510040016 | 45 | 102 | 0.0 | 1.0 | 0.00 | 0.62 | 0.00 | 98 | 1011.9 |
| 20260510034515 | 45 | 237 | 0.0 | 1.0 | 0.00 | 0.62 | 0.62 | 98 | 1012.3 |
| 20260510033014 | 45 | 237 | 0.0 | 0.0 | 0.00 | 0.62 | 0.62 | 98 | 1012.6 |
| 20260510031522 | 45 | 237 | 0.0 | 0.0 | 0.00 | 0.62 | 0.62 | 98 | 1012.5 |
| 20260510030013 | 45 | 237 | 0.0 | 0.0 | 0.00 | 0.62 | 0.62 | 98 | 1012.6 |
| 20260510024515 | 45 | 256 | 0.0 | 1.0 | 0.00 | 0.62 | 0.62 | 98 | 1012.8 |
| 20260510023012 | 45 | 256 | 0.0 | 1.0 | 0.00 | 0.62 | 0.62 | 98 | 1012.7 |
| 20260510021527 | 45 | 214 | 0.0 | 1.0 | 0.00 | 0.62 | 0.62 | 98 | 1012.8 |
| 20260510020011 | 45 | 134 | 0.0 | 1.0 | 0.00 | 0.62 | 0.62 | 98 | 1013.0 |
| 20260510014521 | 45 | 136 | 0.0 | 1.0 | 0.00 | 0.62 | 0.62 | 98 | 1013.1 |
| 20260510013010 | 45 | 174 | 0.0 | 1.0 | 0.00 | 0.62 | 0.62 | 98 | 1012.9 |
| 20260510011514 | 45 | 168 | 0.0 | 2.0 | 0.00 | 0.62 | 0.62 | 98 | 1012.8 |
| 20260510010019 | 45 | 179 | 0.0 | 3.0 | 0.00 | 0.62 | 0.62 | 98 | 1012.8 |
| 20260510004508 | 45 | 234 | 0.0 | 2.0 | 0.00 | 0.62 | 0.62 | 98 | 1012.8 |
| 20260510003007 | 45 | 311 | 0.0 | 2.0 | 0.00 | 0.62 | 0.62 | 98 | 1012.6 |
| 20260510001507 | 45 | 197 | 0.0 | 3.0 | 0.00 | 0.62 | 0.62 | 97 | 1012.6 |
| 20260510000005 | 45 | 179 | 0.0 | 2.0 | 0.00 | 0.62 | 0.62 | 97 | 1012.7 |
| 20260509234509 | 45 | 252 | 1.0 | 2.0 | 0.00 | 0.62 | 0.62 | 97 | 1012.7 |
| 20260509233005 | 45 | 108 | 1.0 | 3.0 | 0.00 | 0.62 | 0.62 | 97 | 1012.5 |
| 20260509231504 | 45 | 207 | 0.0 | 3.0 | 0.01 | 0.62 | 0.62 | 97 | 1012.3 |